sensor_id;sensor_type;location;lat;lon;timestamp;temperature;humidity
14771;DHT22;7477;45.222;5.688;2023-07-28T00:02:24;22.40;91.00
14771;DHT22;7477;45.222;5.688;2023-07-28T00:05:43;22.10;90.90
14771;DHT22;7477;45.222;5.688;2023-07-28T00:09:02;22.20;91.00
14771;DHT22;7477;45.222;5.688;2023-07-28T00:12:22;22.40;90.60
14771;DHT22;7477;45.222;5.688;2023-07-28T00:15:41;22.20;90.70
14771;DHT22;7477;45.222;5.688;2023-07-28T00:19:00;21.90;91.30
14771;DHT22;7477;45.222;5.688;2023-07-28T00:22:19;21.80;91.90
14771;DHT22;7477;45.222;5.688;2023-07-28T00:25:38;21.80;92.50
14771;DHT22;7477;45.222;5.688;2023-07-28T00:28:57;21.90;92.70
14771;DHT22;7477;45.222;5.688;2023-07-28T00:32:17;21.80;92.80
14771;DHT22;7477;45.222;5.688;2023-07-28T00:35:37;21.70;93.20
14771;DHT22;7477;45.222;5.688;2023-07-28T00:38:57;21.70;93.50
14771;DHT22;7477;45.222;5.688;2023-07-28T00:42:16;21.70;93.80
14771;DHT22;7477;45.222;5.688;2023-07-28T00:45:36;21.60;94.30
14771;DHT22;7477;45.222;5.688;2023-07-28T00:48:55;21.50;94.50
14771;DHT22;7477;45.222;5.688;2023-07-28T00:52:14;21.50;94.50
14771;DHT22;7477;45.222;5.688;2023-07-28T00:55:33;21.50;94.20
14771;DHT22;7477;45.222;5.688;2023-07-28T00:58:52;21.40;94.00
14771;DHT22;7477;45.222;5.688;2023-07-28T01:02:12;21.40;93.80
14771;DHT22;7477;45.222;5.688;2023-07-28T01:05:40;21.40;93.50
14771;DHT22;7477;45.222;5.688;2023-07-28T01:09:08;21.40;93.40
14771;DHT22;7477;45.222;5.688;2023-07-28T01:12:28;21.40;93.20
14771;DHT22;7477;45.222;5.688;2023-07-28T01:15:47;21.30;93.30
14771;DHT22;7477;45.222;5.688;2023-07-28T01:19:07;21.20;93.70
14771;DHT22;7477;45.222;5.688;2023-07-28T01:26:12;21.20;93.70
14771;DHT22;7477;45.222;5.688;2023-07-28T01:29:34;21.20;94.10
14771;DHT22;7477;45.222;5.688;2023-07-28T01:32:55;21.20;94.00
14771;DHT22;7477;45.222;5.688;2023-07-28T01:36:14;21.10;94.40
14771;DHT22;7477;45.222;5.688;2023-07-28T01:39:34;21.10;94.20
14771;DHT22;7477;45.222;5.688;2023-07-28T01:42:53;21.10;94.30
14771;DHT22;7477;45.222;5.688;2023-07-28T01:46:12;21.10;94.20
14771;DHT22;7477;45.222;5.688;2023-07-28T01:49:31;21.00;94.40
14771;DHT22;7477;45.222;5.688;2023-07-28T01:52:50;21.00;94.50
14771;DHT22;7477;45.222;5.688;2023-07-28T01:56:10;21.00;94.40
14771;DHT22;7477;45.222;5.688;2023-07-28T01:59:29;21.00;94.20
14771;DHT22;7477;45.222;5.688;2023-07-28T02:02:49;21.00;94.00
14771;DHT22;7477;45.222;5.688;2023-07-28T02:06:08;21.00;94.10
14771;DHT22;7477;45.222;5.688;2023-07-28T02:09:27;21.00;94.20
14771;DHT22;7477;45.222;5.688;2023-07-28T02:12:46;21.00;94.10
14771;DHT22;7477;45.222;5.688;2023-07-28T02:16:06;21.00;94.00
14771;DHT22;7477;45.222;5.688;2023-07-28T02:19:25;20.90;94.80
14771;DHT22;7477;45.222;5.688;2023-07-28T02:22:45;21.10;95.30
14771;DHT22;7477;45.222;5.688;2023-07-28T02:26:04;21.30;95.60
14771;DHT22;7477;45.222;5.688;2023-07-28T02:29:23;21.20;96.30
14771;DHT22;7477;45.222;5.688;2023-07-28T02:32:42;21.20;96.60
14771;DHT22;7477;45.222;5.688;2023-07-28T02:36:02;21.30;97.00
14771;DHT22;7477;45.222;5.688;2023-07-28T02:39:21;21.20;97.30
14771;DHT22;7477;45.222;5.688;2023-07-28T02:42:41;21.10;97.20
14771;DHT22;7477;45.222;5.688;2023-07-28T02:46:00;21.00;97.20
14771;DHT22;7477;45.222;5.688;2023-07-28T02:49:20;20.90;96.90
14771;DHT22;7477;45.222;5.688;2023-07-28T02:52:39;20.80;96.60
14771;DHT22;7477;45.222;5.688;2023-07-28T02:55:58;20.70;96.50
14771;DHT22;7477;45.222;5.688;2023-07-28T02:59:19;20.80;96.70
14771;DHT22;7477;45.222;5.688;2023-07-28T03:02:39;20.80;97.30
14771;DHT22;7477;45.222;5.688;2023-07-28T03:05:58;20.90;97.60
14771;DHT22;7477;45.222;5.688;2023-07-28T03:09:17;21.00;97.90
14771;DHT22;7477;45.222;5.688;2023-07-28T03:12:36;20.90;98.40
14771;DHT22;7477;45.222;5.688;2023-07-28T03:15:55;21.00;99.00
14771;DHT22;7477;45.222;5.688;2023-07-28T03:19:14;21.10;99.30
14771;DHT22;7477;45.222;5.688;2023-07-28T03:22:33;21.30;98.60
14771;DHT22;7477;45.222;5.688;2023-07-28T03:25:53;21.30;99.10
14771;DHT22;7477;45.222;5.688;2023-07-28T03:29:12;21.40;98.70
14771;DHT22;7477;45.222;5.688;2023-07-28T03:32:31;21.70;97.90
14771;DHT22;7477;45.222;5.688;2023-07-28T03:35:50;21.90;98.00
14771;DHT22;7477;45.222;5.688;2023-07-28T03:39:09;22.00;97.40
14771;DHT22;7477;45.222;5.688;2023-07-28T03:42:28;21.90;98.80
14771;DHT22;7477;45.222;5.688;2023-07-28T03:45:47;21.90;99.40
14771;DHT22;7477;45.222;5.688;2023-07-28T03:49:07;21.80;99.40
14771;DHT22;7477;45.222;5.688;2023-07-28T03:52:26;21.70;99.50
14771;DHT22;7477;45.222;5.688;2023-07-28T03:55:45;21.70;99.80
14771;DHT22;7477;45.222;5.688;2023-07-28T03:59:04;21.70;99.90
14771;DHT22;7477;45.222;5.688;2023-07-28T04:02:24;21.70;99.90
14771;DHT22;7477;45.222;5.688;2023-07-28T04:05:44;21.70;99.90
14771;DHT22;7477;45.222;5.688;2023-07-28T04:09:03;21.70;99.90
14771;DHT22;7477;45.222;5.688;2023-07-28T04:12:22;21.80;99.90
14771;DHT22;7477;45.222;5.688;2023-07-28T04:15:41;21.70;99.90
14771;DHT22;7477;45.222;5.688;2023-07-28T04:19:01;21.60;99.90
14771;DHT22;7477;45.222;5.688;2023-07-28T04:22:20;21.50;99.90
14771;DHT22;7477;45.222;5.688;2023-07-28T04:25:40;21.30;99.90
14771;DHT22;7477;45.222;5.688;2023-07-28T04:28:59;21.20;99.90
14771;DHT22;7477;45.222;5.688;2023-07-28T04:32:19;21.20;99.90
14771;DHT22;7477;45.222;5.688;2023-07-28T04:35:38;21.10;99.90
14771;DHT22;7477;45.222;5.688;2023-07-28T04:38:57;21.10;99.90
14771;DHT22;7477;45.222;5.688;2023-07-28T04:42:16;21.10;99.90
14771;DHT22;7477;45.222;5.688;2023-07-28T04:45:35;21.20;99.90
14771;DHT22;7477;45.222;5.688;2023-07-28T04:48:54;21.10;99.90
14771;DHT22;7477;45.222;5.688;2023-07-28T04:52:14;21.10;99.90
14771;DHT22;7477;45.222;5.688;2023-07-28T04:55:33;21.00;99.90
14771;DHT22;7477;45.222;5.688;2023-07-28T04:58:52;21.00;99.90
14771;DHT22;7477;45.222;5.688;2023-07-28T05:02:12;21.00;99.90
14771;DHT22;7477;45.222;5.688;2023-07-28T05:05:31;21.10;99.90
14771;DHT22;7477;45.222;5.688;2023-07-28T05:08:50;21.30;99.90
14771;DHT22;7477;45.222;5.688;2023-07-28T05:12:09;21.20;99.90
14771;DHT22;7477;45.222;5.688;2023-07-28T05:15:28;21.10;99.90
14771;DHT22;7477;45.222;5.688;2023-07-28T05:18:47;21.00;99.90
14771;DHT22;7477;45.222;5.688;2023-07-28T05:22:06;20.90;99.90
14771;DHT22;7477;45.222;5.688;2023-07-28T05:25:26;20.80;99.90
14771;DHT22;7477;45.222;5.688;2023-07-28T05:28:45;20.60;99.90
14771;DHT22;7477;45.222;5.688;2023-07-28T05:32:05;20.50;99.90
14771;DHT22;7477;45.222;5.688;2023-07-28T05:35:25;20.50;99.90
14771;DHT22;7477;45.222;5.688;2023-07-28T05:38:44;20.40;99.90
14771;DHT22;7477;45.222;5.688;2023-07-28T05:42:03;20.40;99.90
14771;DHT22;7477;45.222;5.688;2023-07-28T05:45:22;20.40;99.90
14771;DHT22;7477;45.222;5.688;2023-07-28T05:48:41;20.50;99.90
14771;DHT22;7477;45.222;5.688;2023-07-28T05:52:00;20.40;99.90
14771;DHT22;7477;45.222;5.688;2023-07-28T05:55:20;20.30;99.90
14771;DHT22;7477;45.222;5.688;2023-07-28T05:58:39;20.40;99.90
14771;DHT22;7477;45.222;5.688;2023-07-28T06:01:58;21.60;99.90
14771;DHT22;7477;45.222;5.688;2023-07-28T06:05:17;20.50;99.90
14771;DHT22;7477;45.222;5.688;2023-07-28T06:08:37;20.60;99.90
14771;DHT22;7477;45.222;5.688;2023-07-28T06:11:56;20.70;99.90
14771;DHT22;7477;45.222;5.688;2023-07-28T06:15:15;20.70;99.90
14771;DHT22;7477;45.222;5.688;2023-07-28T06:18:34;20.60;99.90
14771;DHT22;7477;45.222;5.688;2023-07-28T06:21:53;20.60;99.90
14771;DHT22;7477;45.222;5.688;2023-07-28T06:25:13;20.70;99.90
14771;DHT22;7477;45.222;5.688;2023-07-28T06:28:32;20.70;99.90
14771;DHT22;7477;45.222;5.688;2023-07-28T06:31:52;20.80;99.90
14771;DHT22;7477;45.222;5.688;2023-07-28T06:35:11;20.80;99.90
14771;DHT22;7477;45.222;5.688;2023-07-28T06:38:31;20.90;99.90
14771;DHT22;7477;45.222;5.688;2023-07-28T06:41:50;21.00;99.90
14771;DHT22;7477;45.222;5.688;2023-07-28T06:45:10;20.90;99.90
14771;DHT22;7477;45.222;5.688;2023-07-28T06:48:29;21.00;99.90
14771;DHT22;7477;45.222;5.688;2023-07-28T06:51:48;21.00;99.90
14771;DHT22;7477;45.222;5.688;2023-07-28T06:55:08;21.10;99.90
14771;DHT22;7477;45.222;5.688;2023-07-28T06:58:28;21.20;99.90
14771;DHT22;7477;45.222;5.688;2023-07-28T07:01:47;21.20;99.90
14771;DHT22;7477;45.222;5.688;2023-07-28T07:05:06;21.20;99.90
14771;DHT22;7477;45.222;5.688;2023-07-28T07:08:25;21.30;99.90
14771;DHT22;7477;45.222;5.688;2023-07-28T07:11:45;21.30;99.90
14771;DHT22;7477;45.222;5.688;2023-07-28T07:15:06;21.40;99.90
14771;DHT22;7477;45.222;5.688;2023-07-28T07:18:26;21.40;99.90
14771;DHT22;7477;45.222;5.688;2023-07-28T07:21:45;21.50;99.90
14771;DHT22;7477;45.222;5.688;2023-07-28T07:25:06;21.40;99.90
14771;DHT22;7477;45.222;5.688;2023-07-28T07:28:26;21.40;99.90
14771;DHT22;7477;45.222;5.688;2023-07-28T07:31:47;21.40;99.90
14771;DHT22;7477;45.222;5.688;2023-07-28T07:35:08;21.30;99.90
14771;DHT22;7477;45.222;5.688;2023-07-28T07:38:27;21.30;99.90
14771;DHT22;7477;45.222;5.688;2023-07-28T07:41:46;21.30;99.90
14771;DHT22;7477;45.222;5.688;2023-07-28T07:45:06;21.20;99.90
14771;DHT22;7477;45.222;5.688;2023-07-28T07:48:26;21.20;99.90
14771;DHT22;7477;45.222;5.688;2023-07-28T07:51:45;21.20;99.90
14771;DHT22;7477;45.222;5.688;2023-07-28T07:55:05;21.20;99.90
14771;DHT22;7477;45.222;5.688;2023-07-28T07:58:24;21.30;99.90
14771;DHT22;7477;45.222;5.688;2023-07-28T08:01:44;21.40;99.90
14771;DHT22;7477;45.222;5.688;2023-07-28T08:05:04;21.80;99.90
14771;DHT22;7477;45.222;5.688;2023-07-28T08:08:23;21.80;99.90
14771;DHT22;7477;45.222;5.688;2023-07-28T08:11:42;21.70;99.90
14771;DHT22;7477;45.222;5.688;2023-07-28T08:15:02;21.70;99.90
14771;DHT22;7477;45.222;5.688;2023-07-28T08:18:21;21.70;99.90
14771;DHT22;7477;45.222;5.688;2023-07-28T08:21:42;21.80;99.90
14771;DHT22;7477;45.222;5.688;2023-07-28T08:25:01;21.70;99.90
14771;DHT22;7477;45.222;5.688;2023-07-28T08:28:20;21.80;99.90
14771;DHT22;7477;45.222;5.688;2023-07-28T08:31:40;21.90;99.90
14771;DHT22;7477;45.222;5.688;2023-07-28T08:35:00;21.90;99.90
14771;DHT22;7477;45.222;5.688;2023-07-28T08:38:19;22.00;99.90
14771;DHT22;7477;45.222;5.688;2023-07-28T08:41:38;22.00;99.90
14771;DHT22;7477;45.222;5.688;2023-07-28T08:44:58;22.10;99.90
14771;DHT22;7477;45.222;5.688;2023-07-28T08:48:18;22.10;99.90
14771;DHT22;7477;45.222;5.688;2023-07-28T08:51:41;22.20;99.90
14771;DHT22;7477;45.222;5.688;2023-07-28T08:55:01;22.30;99.90
14771;DHT22;7477;45.222;5.688;2023-07-28T08:58:22;22.20;99.90
14771;DHT22;7477;45.222;5.688;2023-07-28T09:01:43;22.20;99.90
14771;DHT22;7477;45.222;5.688;2023-07-28T09:05:03;22.20;99.90
14771;DHT22;7477;45.222;5.688;2023-07-28T09:08:24;22.20;99.90
14771;DHT22;7477;45.222;5.688;2023-07-28T09:11:49;22.20;99.90
14771;DHT22;7477;45.222;5.688;2023-07-28T09:15:09;22.40;99.90
14771;DHT22;7477;45.222;5.688;2023-07-28T09:18:28;22.30;99.90
14771;DHT22;7477;45.222;5.688;2023-07-28T09:21:58;22.30;99.90
14771;DHT22;7477;45.222;5.688;2023-07-28T09:25:18;22.40;99.90
14771;DHT22;7477;45.222;5.688;2023-07-28T09:28:38;22.30;99.90
14771;DHT22;7477;45.222;5.688;2023-07-28T09:32:06;22.30;99.90
14771;DHT22;7477;45.222;5.688;2023-07-28T09:35:25;22.30;99.90
14771;DHT22;7477;45.222;5.688;2023-07-28T09:38:45;22.30;99.90
14771;DHT22;7477;45.222;5.688;2023-07-28T09:42:07;22.50;99.90
14771;DHT22;7477;45.222;5.688;2023-07-28T09:45:29;22.40;99.90
14771;DHT22;7477;45.222;5.688;2023-07-28T09:48:52;22.40;99.90
14771;DHT22;7477;45.222;5.688;2023-07-28T09:52:16;22.40;99.90
14771;DHT22;7477;45.222;5.688;2023-07-28T09:55:38;22.40;99.90
14771;DHT22;7477;45.222;5.688;2023-07-28T09:59:01;22.50;99.90
14771;DHT22;7477;45.222;5.688;2023-07-28T10:02:23;22.50;99.90
14771;DHT22;7477;45.222;5.688;2023-07-28T10:05:43;22.50;99.90
14771;DHT22;7477;45.222;5.688;2023-07-28T10:09:03;22.50;99.90
14771;DHT22;7477;45.222;5.688;2023-07-28T10:12:25;22.60;99.90
14771;DHT22;7477;45.222;5.688;2023-07-28T10:15:48;22.60;99.90
14771;DHT22;7477;45.222;5.688;2023-07-28T10:19:09;22.60;99.90
14771;DHT22;7477;45.222;5.688;2023-07-28T10:22:30;22.70;99.90
14771;DHT22;7477;45.222;5.688;2023-07-28T10:25:57;22.80;99.90
14771;DHT22;7477;45.222;5.688;2023-07-28T10:29:18;22.80;99.90
14771;DHT22;7477;45.222;5.688;2023-07-28T10:32:39;22.80;99.90
14771;DHT22;7477;45.222;5.688;2023-07-28T10:36:17;22.80;99.90
14771;DHT22;7477;45.222;5.688;2023-07-28T10:39:37;22.90;99.90
14771;DHT22;7477;45.222;5.688;2023-07-28T10:42:57;22.80;99.90
14771;DHT22;7477;45.222;5.688;2023-07-28T10:46:18;22.80;99.90
14771;DHT22;7477;45.222;5.688;2023-07-28T10:49:37;22.80;99.90
14771;DHT22;7477;45.222;5.688;2023-07-28T10:52:57;22.90;99.90
14771;DHT22;7477;45.222;5.688;2023-07-28T10:56:16;23.00;99.90
14771;DHT22;7477;45.222;5.688;2023-07-28T10:59:35;23.10;99.90
14771;DHT22;7477;45.222;5.688;2023-07-28T11:02:55;23.20;99.90
14771;DHT22;7477;45.222;5.688;2023-07-28T11:06:14;23.30;99.90
14771;DHT22;7477;45.222;5.688;2023-07-28T11:09:33;23.20;99.90
14771;DHT22;7477;45.222;5.688;2023-07-28T11:12:52;23.20;99.90
14771;DHT22;7477;45.222;5.688;2023-07-28T11:16:12;23.30;99.90
14771;DHT22;7477;45.222;5.688;2023-07-28T11:19:33;23.30;99.90
14771;DHT22;7477;45.222;5.688;2023-07-28T11:23:03;23.40;99.90
14771;DHT22;7477;45.222;5.688;2023-07-28T11:26:23;23.40;99.90
14771;DHT22;7477;45.222;5.688;2023-07-28T11:29:43;23.50;99.90
14771;DHT22;7477;45.222;5.688;2023-07-28T11:33:03;23.50;99.90
14771;DHT22;7477;45.222;5.688;2023-07-28T11:36:28;23.60;99.90
14771;DHT22;7477;45.222;5.688;2023-07-28T11:39:48;23.60;99.90
14771;DHT22;7477;45.222;5.688;2023-07-28T11:43:07;24.80;99.90
14771;DHT22;7477;45.222;5.688;2023-07-28T11:46:34;25.80;99.80
14771;DHT22;7477;45.222;5.688;2023-07-28T11:49:53;25.90;99.70
14771;DHT22;7477;45.222;5.688;2023-07-28T11:53:13;26.20;99.40
14771;DHT22;7477;45.222;5.688;2023-07-28T11:56:33;26.20;99.60
14771;DHT22;7477;45.222;5.688;2023-07-28T11:59:53;26.20;99.60
14771;DHT22;7477;45.222;5.688;2023-07-28T12:03:13;26.30;98.70
14771;DHT22;7477;45.222;5.688;2023-07-28T12:06:32;26.40;97.70
14771;DHT22;7477;45.222;5.688;2023-07-28T12:09:52;26.40;97.60
14771;DHT22;7477;45.222;5.688;2023-07-28T12:13:11;26.20;97.70
14771;DHT22;7477;45.222;5.688;2023-07-28T12:16:41;26.30;96.70
14771;DHT22;7477;45.222;5.688;2023-07-28T12:20:05;26.40;96.10
14771;DHT22;7477;45.222;5.688;2023-07-28T12:23:33;26.20;96.60
14771;DHT22;7477;45.222;5.688;2023-07-28T12:26:52;26.70;96.10
14771;DHT22;7477;45.222;5.688;2023-07-28T12:30:11;26.80;96.50
14771;DHT22;7477;45.222;5.688;2023-07-28T12:33:31;27.00;96.20
14771;DHT22;7477;45.222;5.688;2023-07-28T12:36:50;27.10;95.00
14771;DHT22;7477;45.222;5.688;2023-07-28T12:40:10;27.10;95.20
14771;DHT22;7477;45.222;5.688;2023-07-28T12:43:30;27.20;95.10
14771;DHT22;7477;45.222;5.688;2023-07-28T12:46:49;27.30;94.20
14771;DHT22;7477;45.222;5.688;2023-07-28T12:50:08;27.40;93.60
14771;DHT22;7477;45.222;5.688;2023-07-28T12:53:29;27.20;94.30
14771;DHT22;7477;45.222;5.688;2023-07-28T12:56:48;27.10;94.00
14771;DHT22;7477;45.222;5.688;2023-07-28T13:00:07;27.40;93.80
14771;DHT22;7477;45.222;5.688;2023-07-28T13:03:31;27.40;93.40
14771;DHT22;7477;45.222;5.688;2023-07-28T13:06:51;27.70;93.20
14771;DHT22;7477;45.222;5.688;2023-07-28T13:10:10;27.70;93.40
14771;DHT22;7477;45.222;5.688;2023-07-28T13:13:30;27.90;93.10
14771;DHT22;7477;45.222;5.688;2023-07-28T13:16:49;27.70;93.50
14771;DHT22;7477;45.222;5.688;2023-07-28T13:20:09;27.60;92.90
14771;DHT22;7477;45.222;5.688;2023-07-28T13:23:28;27.50;93.10
14771;DHT22;7477;45.222;5.688;2023-07-28T13:26:48;27.50;93.50
14771;DHT22;7477;45.222;5.688;2023-07-28T13:30:08;27.50;93.30
14771;DHT22;7477;45.222;5.688;2023-07-28T13:33:27;27.80;93.20
14771;DHT22;7477;45.222;5.688;2023-07-28T13:36:46;27.80;92.40
14771;DHT22;7477;45.222;5.688;2023-07-28T13:40:06;27.80;92.60
14771;DHT22;7477;45.222;5.688;2023-07-28T13:43:25;27.60;92.50
14771;DHT22;7477;45.222;5.688;2023-07-28T13:46:45;27.70;92.30
14771;DHT22;7477;45.222;5.688;2023-07-28T13:50:04;27.70;92.10
14771;DHT22;7477;45.222;5.688;2023-07-28T13:53:24;27.70;92.30
14771;DHT22;7477;45.222;5.688;2023-07-28T13:56:44;27.80;91.90
14771;DHT22;7477;45.222;5.688;2023-07-28T14:00:03;27.90;91.90
14771;DHT22;7477;45.222;5.688;2023-07-28T14:03:28;27.90;92.20
14771;DHT22;7477;45.222;5.688;2023-07-28T14:06:47;28.10;93.60
14771;DHT22;7477;45.222;5.688;2023-07-28T14:10:06;28.80;91.60
14771;DHT22;7477;45.222;5.688;2023-07-28T14:13:25;28.80;92.10
14771;DHT22;7477;45.222;5.688;2023-07-28T14:16:44;28.90;91.40
14771;DHT22;7477;45.222;5.688;2023-07-28T14:20:05;28.70;91.20
14771;DHT22;7477;45.222;5.688;2023-07-28T14:23:26;28.50;91.90
14771;DHT22;7477;45.222;5.688;2023-07-28T14:26:46;29.00;90.20
14771;DHT22;7477;45.222;5.688;2023-07-28T14:30:05;28.90;90.70
14771;DHT22;7477;45.222;5.688;2023-07-28T14:33:25;29.10;89.10
14771;DHT22;7477;45.222;5.688;2023-07-28T14:36:44;29.10;88.40
14771;DHT22;7477;45.222;5.688;2023-07-28T14:40:04;29.00;89.10
14771;DHT22;7477;45.222;5.688;2023-07-28T14:43:23;28.90;87.50
14771;DHT22;7477;45.222;5.688;2023-07-28T14:46:44;29.10;86.90
14771;DHT22;7477;45.222;5.688;2023-07-28T14:50:05;29.60;85.00
14771;DHT22;7477;45.222;5.688;2023-07-28T14:53:30;29.80;84.60
14771;DHT22;7477;45.222;5.688;2023-07-28T14:56:49;29.60;83.60
14771;DHT22;7477;45.222;5.688;2023-07-28T15:00:09;29.10;85.70
14771;DHT22;7477;45.222;5.688;2023-07-28T15:03:29;29.00;86.40
14771;DHT22;7477;45.222;5.688;2023-07-28T15:06:49;29.00;85.00
14771;DHT22;7477;45.222;5.688;2023-07-28T15:10:08;28.90;85.10
14771;DHT22;7477;45.222;5.688;2023-07-28T15:13:28;28.80;86.00
14771;DHT22;7477;45.222;5.688;2023-07-28T15:16:47;28.30;87.60
14771;DHT22;7477;45.222;5.688;2023-07-28T15:20:07;28.70;87.30
14771;DHT22;7477;45.222;5.688;2023-07-28T15:23:26;28.20;89.30
14771;DHT22;7477;45.222;5.688;2023-07-28T15:26:46;28.30;90.40
14771;DHT22;7477;45.222;5.688;2023-07-28T15:30:09;28.20;91.00
14771;DHT22;7477;45.222;5.688;2023-07-28T15:33:28;28.60;90.00
14771;DHT22;7477;45.222;5.688;2023-07-28T15:36:49;28.90;89.20
14771;DHT22;7477;45.222;5.688;2023-07-28T15:40:09;28.40;91.00
14771;DHT22;7477;45.222;5.688;2023-07-28T15:43:28;28.60;90.20
14771;DHT22;7477;45.222;5.688;2023-07-28T15:46:47;28.80;88.00
14771;DHT22;7477;45.222;5.688;2023-07-28T15:50:08;29.40;86.40
14771;DHT22;7477;45.222;5.688;2023-07-28T15:53:27;29.50;86.20
14771;DHT22;7477;45.222;5.688;2023-07-28T15:56:46;29.90;83.70
14771;DHT22;7477;45.222;5.688;2023-07-28T16:00:06;29.90;85.50
14771;DHT22;7477;45.222;5.688;2023-07-28T16:03:28;29.90;84.20
14771;DHT22;7477;45.222;5.688;2023-07-28T16:06:48;29.60;87.60
14771;DHT22;7477;45.222;5.688;2023-07-28T16:10:08;29.10;88.80
14771;DHT22;7477;45.222;5.688;2023-07-28T16:13:28;29.40;88.50
14771;DHT22;7477;45.222;5.688;2023-07-28T16:16:47;29.80;86.50
14771;DHT22;7477;45.222;5.688;2023-07-28T16:20:07;29.80;85.60
14771;DHT22;7477;45.222;5.688;2023-07-28T16:23:27;29.70;86.90
14771;DHT22;7477;45.222;5.688;2023-07-28T16:26:46;28.70;88.90
14771;DHT22;7477;45.222;5.688;2023-07-28T16:30:06;27.90;90.10
14771;DHT22;7477;45.222;5.688;2023-07-28T16:33:26;27.70;90.50
14771;DHT22;7477;45.222;5.688;2023-07-28T16:36:45;27.40;90.80
14771;DHT22;7477;45.222;5.688;2023-07-28T16:40:04;27.20;91.20
14771;DHT22;7477;45.222;5.688;2023-07-28T16:43:24;27.20;91.10
14771;DHT22;7477;45.222;5.688;2023-07-28T16:46:43;27.10;91.30
14771;DHT22;7477;45.222;5.688;2023-07-28T16:50:05;27.10;91.30
14771;DHT22;7477;45.222;5.688;2023-07-28T16:53:24;26.90;91.60
14771;DHT22;7477;45.222;5.688;2023-07-28T16:56:44;26.80;91.70
14771;DHT22;7477;45.222;5.688;2023-07-28T17:00:05;26.80;91.70
14771;DHT22;7477;45.222;5.688;2023-07-28T17:03:25;26.80;91.90
14771;DHT22;7477;45.222;5.688;2023-07-28T17:06:44;26.70;92.00
14771;DHT22;7477;45.222;5.688;2023-07-28T17:10:04;26.80;91.90
14771;DHT22;7477;45.222;5.688;2023-07-28T17:13:24;26.90;92.10
14771;DHT22;7477;45.222;5.688;2023-07-28T17:16:43;26.90;91.70
14771;DHT22;7477;45.222;5.688;2023-07-28T17:20:02;26.90;91.80
14771;DHT22;7477;45.222;5.688;2023-07-28T17:23:22;27.00;91.90
14771;DHT22;7477;45.222;5.688;2023-07-28T17:26:41;26.80;91.80
14771;DHT22;7477;45.222;5.688;2023-07-28T17:30:01;26.70;91.90
14771;DHT22;7477;45.222;5.688;2023-07-28T17:33:20;26.70;92.00
14771;DHT22;7477;45.222;5.688;2023-07-28T17:36:39;26.70;92.30
14771;DHT22;7477;45.222;5.688;2023-07-28T17:39:58;26.70;92.10
14771;DHT22;7477;45.222;5.688;2023-07-28T17:43:17;26.60;92.10
14771;DHT22;7477;45.222;5.688;2023-07-28T17:46:36;26.70;92.10
14771;DHT22;7477;45.222;5.688;2023-07-28T17:49:55;26.70;92.20
14771;DHT22;7477;45.222;5.688;2023-07-28T17:53:15;26.80;91.90
14771;DHT22;7477;45.222;5.688;2023-07-28T17:56:34;26.70;92.10
14771;DHT22;7477;45.222;5.688;2023-07-28T17:59:53;26.60;92.00
14771;DHT22;7477;45.222;5.688;2023-07-28T18:03:12;26.60;92.20
14771;DHT22;7477;45.222;5.688;2023-07-28T18:06:31;26.60;92.30
14771;DHT22;7477;45.222;5.688;2023-07-28T18:09:51;26.60;92.30
14771;DHT22;7477;45.222;5.688;2023-07-28T18:13:10;26.60;92.40
14771;DHT22;7477;45.222;5.688;2023-07-28T18:16:30;26.70;92.40
14771;DHT22;7477;45.222;5.688;2023-07-28T18:19:50;26.60;92.50
14771;DHT22;7477;45.222;5.688;2023-07-28T18:23:09;26.60;92.80
14771;DHT22;7477;45.222;5.688;2023-07-28T18:26:28;26.60;92.60
14771;DHT22;7477;45.222;5.688;2023-07-28T18:29:48;26.60;92.90
14771;DHT22;7477;45.222;5.688;2023-07-28T18:33:07;26.70;93.30
14771;DHT22;7477;45.222;5.688;2023-07-28T18:36:28;26.70;92.80
14771;DHT22;7477;45.222;5.688;2023-07-28T18:39:47;26.60;93.00
14771;DHT22;7477;45.222;5.688;2023-07-28T18:43:06;26.60;92.80
14771;DHT22;7477;45.222;5.688;2023-07-28T18:46:25;26.70;92.90
14771;DHT22;7477;45.222;5.688;2023-07-28T18:49:45;26.60;92.70
14771;DHT22;7477;45.222;5.688;2023-07-28T18:53:05;26.70;92.90
14771;DHT22;7477;45.222;5.688;2023-07-28T18:56:24;26.60;93.00
14771;DHT22;7477;45.222;5.688;2023-07-28T18:59:43;26.60;93.00
14771;DHT22;7477;45.222;5.688;2023-07-28T19:03:02;26.60;93.20
14771;DHT22;7477;45.222;5.688;2023-07-28T19:06:21;26.70;93.10
14771;DHT22;7477;45.222;5.688;2023-07-28T19:09:41;26.70;93.10
14771;DHT22;7477;45.222;5.688;2023-07-28T19:13:01;26.50;93.30
14771;DHT22;7477;45.222;5.688;2023-07-28T19:16:21;26.50;93.40
14771;DHT22;7477;45.222;5.688;2023-07-28T19:19:40;26.50;93.50
14771;DHT22;7477;45.222;5.688;2023-07-28T19:23:00;26.50;93.40
14771;DHT22;7477;45.222;5.688;2023-07-28T19:26:19;26.40;93.20
14771;DHT22;7477;45.222;5.688;2023-07-28T19:29:38;26.40;93.30
14771;DHT22;7477;45.222;5.688;2023-07-28T19:32:58;26.40;93.20
14771;DHT22;7477;45.222;5.688;2023-07-28T19:36:17;26.40;93.10
14771;DHT22;7477;45.222;5.688;2023-07-28T19:39:37;26.40;93.10
14771;DHT22;7477;45.222;5.688;2023-07-28T19:42:57;26.30;93.20
14771;DHT22;7477;45.222;5.688;2023-07-28T19:46:16;26.30;93.10
14771;DHT22;7477;45.222;5.688;2023-07-28T19:49:35;26.40;93.20
14771;DHT22;7477;45.222;5.688;2023-07-28T19:52:54;26.30;93.10
14771;DHT22;7477;45.222;5.688;2023-07-28T19:56:13;26.40;92.70
14771;DHT22;7477;45.222;5.688;2023-07-28T19:59:33;26.30;92.60
14771;DHT22;7477;45.222;5.688;2023-07-28T20:02:52;26.30;92.90
14771;DHT22;7477;45.222;5.688;2023-07-28T20:06:12;26.30;92.70
14771;DHT22;7477;45.222;5.688;2023-07-28T20:09:31;26.30;92.90
14771;DHT22;7477;45.222;5.688;2023-07-28T20:12:51;26.20;92.90
14771;DHT22;7477;45.222;5.688;2023-07-28T20:16:10;26.20;92.90
14771;DHT22;7477;45.222;5.688;2023-07-28T20:19:29;26.20;93.00
14771;DHT22;7477;45.222;5.688;2023-07-28T20:22:49;26.20;92.80
14771;DHT22;7477;45.222;5.688;2023-07-28T20:26:15;26.10;92.80
14771;DHT22;7477;45.222;5.688;2023-07-28T20:29:34;26.10;92.70
14771;DHT22;7477;45.222;5.688;2023-07-28T20:32:53;26.10;92.80
14771;DHT22;7477;45.222;5.688;2023-07-28T20:36:14;26.10;93.20
14771;DHT22;7477;45.222;5.688;2023-07-28T20:39:34;26.10;93.00
14771;DHT22;7477;45.222;5.688;2023-07-28T20:42:53;26.10;92.60
14771;DHT22;7477;45.222;5.688;2023-07-28T20:46:14;26.00;92.50
14771;DHT22;7477;45.222;5.688;2023-07-28T20:49:34;25.90;92.80
14771;DHT22;7477;45.222;5.688;2023-07-28T20:52:53;25.90;93.10
14771;DHT22;7477;45.222;5.688;2023-07-28T20:56:14;25.90;93.10
14771;DHT22;7477;45.222;5.688;2023-07-28T20:59:33;25.90;92.90
14771;DHT22;7477;45.222;5.688;2023-07-28T21:02:52;25.90;92.70
14771;DHT22;7477;45.222;5.688;2023-07-28T21:06:12;25.80;92.50
14771;DHT22;7477;45.222;5.688;2023-07-28T21:09:35;25.80;92.50
14771;DHT22;7477;45.222;5.688;2023-07-28T21:12:54;25.80;92.50
14771;DHT22;7477;45.222;5.688;2023-07-28T21:16:14;25.80;92.60
14771;DHT22;7477;45.222;5.688;2023-07-28T21:19:34;25.70;92.80
14771;DHT22;7477;45.222;5.688;2023-07-28T21:22:54;25.80;92.70
14771;DHT22;7477;45.222;5.688;2023-07-28T21:26:13;25.80;93.10